Time;durP1;ratioP1;P1;durP2;ratioP2;P2;SDS_P1;SDS_P2;PMS_P1;PMS_P2;Temp;Humidity;BMP_temperature;BMP_pressure;BME280_temperature;BME280_humidity;BME280_pressure;Samples;Min_cycle;Max_cycle;Signal;HPM_P1;HPM_P2
2021/01/01 00:01:46;;;;;;;11.13;10.02;;;3.50;99.90;;;;;;6242987;23;20162;-82
2021/01/01 00:04:12;;;;;;;11.07;9.50;;;3.60;99.90;;;;;;6243105;23;20189;-82
2021/01/01 00:06:39;;;;;;;11.45;8.40;;;3.60;99.90;;;;;;6242953;23;20205;-82
2021/01/01 00:09:07;;;;;;;10.38;9.00;;;3.60;99.90;;;;;;6243146;23;20179;-82
2021/01/01 00:11:33;;;;;;;12.27;9.30;;;3.70;99.90;;;;;;6242798;23;20170;-82
2021/01/01 00:13:59;;;;;;;11.98;10.55;;;3.80;99.90;;;;;;6244350;23;20172;-83
2021/01/01 00:16:26;;;;;;;13.60;10.68;;;3.80;99.90;;;;;;6244958;23;20191;-83
2021/01/01 00:18:53;;;;;;;12.73;10.25;;;3.80;99.90;;;;;;6245487;23;20165;-83
2021/01/01 00:21:19;;;;;;;11.77;10.68;;;3.80;99.90;;;;;;6245287;23;20227;-80
2021/01/01 00:23:45;;;;;;;10.23;8.77;;;3.80;99.90;;;;;;6244658;23;20232;-81
2021/01/01 00:26:12;;;;;;;12.25;9.40;;;3.80;99.90;;;;;;6243853;23;20166;-81
2021/01/01 00:28:42;;;;;;;11.95;8.90;;;3.70;99.90;;;;;;6245060;23;20201;-81
2021/01/01 00:31:08;;;;;;;11.30;10.18;;;3.60;99.90;;;;;;6244972;23;20165;-81
2021/01/01 00:33:35;;;;;;;12.35;9.77;;;3.70;99.90;;;;;;6244652;23;20221;-81
2021/01/01 00:36:04;;;;;;;9.75;8.75;;;3.80;99.90;;;;;;6244537;23;20190;-81
2021/01/01 00:38:30;;;;;;;8.98;8.18;;;3.70;99.90;;;;;;6243455;23;20167;-82
2021/01/01 00:40:57;;;;;;;10.80;9.45;;;3.70;99.90;;;;;;6244105;23;20180;-81
2021/01/01 00:43:23;;;;;;;7.68;6.85;;;3.70;99.90;;;;;;6243838;23;20199;-82
2021/01/01 00:45:49;;;;;;;12.82;9.02;;;3.70;99.90;;;;;;6243932;23;20190;-82
2021/01/01 00:48:15;;;;;;;10.45;8.85;;;3.70;99.90;;;;;;6244001;23;20190;-82
2021/01/01 00:50:42;;;;;;;11.10;9.65;;;3.80;99.90;;;;;;6243905;23;20217;-83
2021/01/01 00:53:08;;;;;;;10.00;9.00;;;3.80;99.90;;;;;;6243606;23;20234;-82
2021/01/01 00:55:35;;;;;;;9.40;8.60;;;3.70;99.90;;;;;;6243635;23;20162;-82
2021/01/01 00:58:01;;;;;;;11.80;9.02;;;3.80;99.90;;;;;;6243824;23;20209;-83
2021/01/01 01:00:27;;;;;;;10.45;9.35;;;3.80;99.90;;;;;;6243999;23;20176;-82
2021/01/01 01:02:53;;;;;;;8.95;7.85;;;3.80;99.90;;;;;;6243852;23;20210;-82
2021/01/01 01:05:19;;;;;;;8.63;7.82;;;3.80;99.90;;;;;;6243434;23;20159;-82
2021/01/01 01:07:46;;;;;;;10.32;9.30;;;3.80;99.90;;;;;;6244022;23;20256;-82
2021/01/01 01:10:13;;;;;;;11.07;9.95;;;3.80;99.90;;;;;;6243521;23;20190;-82
2021/01/01 01:12:39;;;;;;;9.82;8.80;;;3.70;99.90;;;;;;6243507;23;20182;-81
2021/01/01 01:15:07;;;;;;;11.50;9.20;;;3.80;99.90;;;;;;6244127;23;20178;-82
2021/01/01 01:17:33;;;;;;;10.82;8.45;;;3.80;99.90;;;;;;6243722;23;20202;-81
2021/01/01 01:19:59;;;;;;;9.68;8.73;;;3.90;99.90;;;;;;6243387;23;20157;-82
2021/01/01 01:22:25;;;;;;;8.75;7.90;;;3.90;99.90;;;;;;6243100;23;20201;-82
2021/01/01 01:24:52;;;;;;;8.73;7.82;;;3.90;99.90;;;;;;6242800;23;20160;-81
2021/01/01 01:27:18;;;;;;;11.38;10.18;;;3.90;99.90;;;;;;6243241;23;20185;-82
2021/01/01 01:29:44;;;;;;;9.77;8.77;;;3.90;99.90;;;;;;6243643;23;20176;-82
2021/01/01 01:32:10;;;;;;;10.93;9.15;;;3.90;99.90;;;;;;6243370;23;20163;-82
2021/01/01 01:34:37;;;;;;;10.05;8.82;;;3.80;99.90;;;;;;6243068;23;20169;-83
2021/01/01 01:37:03;;;;;;;10.50;8.43;;;3.80;99.90;;;;;;6243034;23;20209;-82
2021/01/01 01:39:29;;;;;;;10.73;9.45;;;3.70;99.90;;;;;;6243392;23;20171;-82
2021/01/01 01:41:56;;;;;;;13.23;9.90;;;3.60;99.90;;;;;;6243151;23;20170;-82
2021/01/01 01:44:22;;;;;;;8.70;7.85;;;3.50;99.90;;;;;;6243126;23;20201;-82
2021/01/01 01:46:48;;;;;;;13.48;12.20;;;3.60;99.90;;;;;;6243363;23;20218;-82
2021/01/01 01:49:17;;;;;;;11.23;9.68;;;3.70;99.90;;;;;;6243656;23;20171;-82
2021/01/01 01:51:47;;;;;;;11.63;10.35;;;3.60;99.90;;;;;;6243028;23;20212;-82
2021/01/01 01:54:14;;;;;;;10.02;9.02;;;3.60;99.90;;;;;;6243926;23;20205;-82
2021/01/01 01:56:42;;;;;;;11.18;9.98;;;3.40;99.90;;;;;;6242979;23;20187;-82
2021/01/01 01:59:09;;;;;;;12.55;9.57;;;3.30;99.90;;;;;;6243239;23;20167;-82
2021/01/01 02:01:35;;;;;;;11.70;9.63;;;3.30;99.90;;;;;;6242440;23;20200;-82
2021/01/01 02:04:02;;;;;;;14.52;10.02;;;3.20;99.90;;;;;;6242517;23;20720;-83
2021/01/01 02:06:28;;;;;;;13.70;11.02;;;3.20;99.90;;;;;;6242239;23;20186;-83
2021/01/01 02:08:54;;;;;;;10.55;9.32;;;3.20;99.90;;;;;;6242102;23;20165;-83
2021/01/01 02:11:21;;;;;;;12.65;11.07;;;3.30;99.90;;;;;;6241805;23;20217;-83
2021/01/01 02:13:49;;;;;;;14.23;11.35;;;3.20;99.90;;;;;;6241157;23;20178;-83
2021/01/01 02:16:20;;;;;;;13.13;10.70;;;3.20;99.90;;;;;;6235264;23;20189;-83
2021/01/01 02:18:46;;;;;;;12.45;11.10;;;3.10;99.90;;;;;;6226615;23;20250;-83
2021/01/01 02:21:15;;;;;;;14.18;11.02;;;3.20;99.90;;;;;;6222394;23;20183;-83
2021/01/01 02:23:42;;;;;;;14.40;11.02;;;3.30;99.90;;;;;;6220919;23;20186;-83
2021/01/01 02:26:08;;;;;;;13.20;11.57;;;3.20;99.90;;;;;;6222286;23;20178;-83
2021/01/01 02:28:34;;;;;;;12.32;11.02;;;3.20;99.90;;;;;;6221016;23;20200;-83
2021/01/01 02:31:01;;;;;;;12.50;11.23;;;3.20;99.90;;;;;;6220504;23;20557;-83
2021/01/01 02:33:27;;;;;;;16.58;12.32;;;3.30;99.90;;;;;;6220335;23;20232;-83
2021/01/01 02:35:53;;;;;;;13.20;11.90;;;3.40;99.90;;;;;;6220640;23;20183;-83
2021/01/01 02:38:19;;;;;;;14.80;12.48;;;3.50;99.90;;;;;;6219882;23;20201;-83
2021/01/01 02:40:49;;;;;;;12.88;10.63;;;3.60;99.90;;;;;;6220622;23;20201;-83
2021/01/01 02:43:15;;;;;;;13.63;10.80;;;3.80;99.90;;;;;;6219727;23;20198;-83
2021/01/01 02:45:42;;;;;;;12.68;11.23;;;3.80;99.90;;;;;;6219488;23;20191;-83
2021/01/01 02:48:12;;;;;;;10.65;9.55;;;3.90;99.90;;;;;;6219903;23;20206;-82
2021/01/01 02:50:39;;;;;;;15.10;10.85;;;4.00;99.90;;;;;;6220881;23;20778;-83
2021/01/01 02:53:05;;;;;;;10.40;9.27;;;4.10;99.90;;;;;;6220627;23;20560;-82
2021/01/01 02:55:31;;;;;;;14.93;11.63;;;4.00;99.90;;;;;;6220375;23;20182;-82
2021/01/01 02:57:59;;;;;;;12.52;10.27;;;4.00;99.90;;;;;;6220719;23;20220;-82
2021/01/01 03:00:26;;;;;;;13.48;11.77;;;4.00;99.90;;;;;;6220781;23;20180;-82
2021/01/01 03:02:53;;;;;;;11.63;10.18;;;3.80;99.90;;;;;;6220355;23;20206;-82
2021/01/01 03:05:19;;;;;;;13.10;10.63;;;3.80;99.90;;;;;;6219654;23;20190;-83
2021/01/01 03:07:45;;;;;;;12.77;11.00;;;3.80;99.90;;;;;;6220558;23;20201;-84
2021/01/01 03:10:12;;;;;;;15.00;11.63;;;3.90;99.90;;;;;;6226293;23;20193;-84
2021/01/01 03:12:38;;;;;;;12.48;11.05;;;3.80;99.90;;;;;;6227780;23;20166;-84
2021/01/01 03:15:06;;;;;;;17.45;11.52;;;3.70;99.90;;;;;;6227198;23;20638;-85
2021/01/01 03:17:32;;;;;;;19.15;12.88;;;3.80;99.90;;;;;;6227389;23;20255;-84
2021/01/01 03:19:59;;;;;;;16.13;12.50;;;3.70;99.90;;;;;;6228026;23;20182;-85
2021/01/01 03:22:25;;;;;;;15.35;11.82;;;3.80;99.90;;;;;;6228473;23;20194;-83
2021/01/01 03:24:51;;;;;;;18.55;13.52;;;3.60;99.90;;;;;;6228635;23;20184;-84
2021/01/01 03:27:17;;;;;;;14.00;12.50;;;3.50;99.90;;;;;;6227392;23;20203;-84
2021/01/01 03:29:43;;;;;;;18.85;13.80;;;3.50;99.90;;;;;;6225477;23;20182;-83
2021/01/01 03:32:10;;;;;;;18.15;13.52;;;3.40;99.90;;;;;;6228051;23;20208;-84
2021/01/01 03:34:37;;;;;;;23.30;15.48;;;3.50;99.90;;;;;;6223355;23;20185;-85
2021/01/01 03:37:03;;;;;;;18.45;15.50;;;3.40;99.90;;;;;;6233481;23;20232;-87
2021/01/01 03:39:29;;;;;;;18.63;16.00;;;3.50;99.90;;;;;;6221395;23;20188;-85
2021/01/01 03:41:55;;;;;;;16.13;14.00;;;3.50;99.90;;;;;;6226514;23;20204;-84
2021/01/01 03:44:21;;;;;;;15.80;12.65;;;3.50;99.90;;;;;;6230614;23;20208;-84
2021/01/01 03:46:47;;;;;;;23.20;14.82;;;3.40;99.90;;;;;;6230301;23;20202;-84
2021/01/01 03:49:15;;;;;;;18.13;14.75;;;3.50;99.90;;;;;;6229960;23;20182;-84
2021/01/01 03:51:41;;;;;;;16.30;14.23;;;3.60;99.90;;;;;;6230863;23;20231;-84
2021/01/01 03:54:07;;;;;;;17.38;13.77;;;3.50;99.90;;;;;;6231067;23;20174;-84
2021/01/01 03:56:33;;;;;;;18.52;14.98;;;3.50;99.90;;;;;;6229858;23;20206;-84
2021/01/01 03:58:59;;;;;;;18.20;13.52;;;3.60;99.90;;;;;;6231236;23;20209;-84
2021/01/01 04:01:25;;;;;;;19.42;15.57;;;3.60;99.90;;;;;;6231256;23;20177;-84
2021/01/01 04:03:51;;;;;;;22.85;14.23;;;3.60;99.90;;;;;;6230072;23;20190;-84
2021/01/01 04:06:18;;;;;;;21.55;16.13;;;3.70;99.90;;;;;;6230891;23;20204;-85
2021/01/01 04:08:45;;;;;;;17.88;14.35;;;3.70;99.90;;;;;;6230294;23;20182;-85
2021/01/01 04:11:11;;;;;;;16.13;14.32;;;3.80;99.90;;;;;;6230018;23;20187;-83
2021/01/01 04:13:37;;;;;;;17.20;14.20;;;3.90;99.90;;;;;;6230676;23;20176;-83
2021/01/01 04:16:04;;;;;;;18.55;14.70;;;3.90;99.90;;;;;;6230422;23;20194;-83
2021/01/01 04:18:30;;;;;;;15.88;13.88;;;4.00;99.90;;;;;;6231164;23;20181;-84
2021/01/01 04:20:57;;;;;;;19.70;14.65;;;3.90;99.90;;;;;;6230515;23;20183;-84
2021/01/01 04:23:23;;;;;;;18.90;14.80;;;4.00;99.90;;;;;;6230063;23;20237;-84
2021/01/01 04:25:50;;;;;;;20.15;16.15;;;4.00;99.90;;;;;;6231289;23;20178;-83
2021/01/01 04:28:16;;;;;;;18.77;14.73;;;4.10;99.90;;;;;;6230585;23;20201;-83
2021/01/01 04:30:42;;;;;;;20.17;14.48;;;4.10;99.90;;;;;;6230163;23;20183;-83
2021/01/01 04:33:08;;;;;;;20.58;15.30;;;4.10;99.90;;;;;;6230414;23;20174;-83
2021/01/01 04:35:34;;;;;;;14.73;12.10;;;4.20;99.90;;;;;;6231032;23;20207;-83
2021/01/01 04:38:00;;;;;;;15.32;13.63;;;4.30;99.90;;;;;;6230696;23;20198;-83
2021/01/01 04:40:28;;;;;;;16.58;14.48;;;4.30;99.90;;;;;;6230414;23;20186;-84
2021/01/01 04:42:54;;;;;;;16.90;13.93;;;4.30;99.90;;;;;;6230788;23;20198;-83
2021/01/01 04:45:21;;;;;;;15.43;13.18;;;4.30;99.90;;;;;;6231399;23;20185;-85
2021/01/01 04:47:49;;;;;;;18.85;13.38;;;4.30;99.90;;;;;;6231104;23;20200;-84
2021/01/01 04:50:16;;;;;;;17.98;15.98;;;4.30;99.90;;;;;;6230612;23;20185;-84
2021/01/01 04:52:48;;;;;;;18.38;16.33;;;4.40;99.90;;;;;;6230447;23;20179;-84
2021/01/01 04:55:15;;;;;;;18.92;15.52;;;4.40;99.90;;;;;;6230089;23;20168;-83
2021/01/01 04:57:42;;;;;;;19.70;15.45;;;4.40;99.90;;;;;;6229989;23;20201;-84
2021/01/01 05:00:09;;;;;;;18.98;16.02;;;4.40;99.90;;;;;;6230602;23;20181;-84
2021/01/01 05:02:36;;;;;;;16.27;14.50;;;4.40;99.90;;;;;;6230531;23;20256;-84
2021/01/01 05:05:02;;;;;;;15.25;13.80;;;4.50;99.90;;;;;;6231831;23;20181;-85
2021/01/01 05:07:28;;;;;;;19.00;16.70;;;4.50;99.90;;;;;;6228149;23;20229;-85
2021/01/01 05:09:56;;;;;;;17.38;12.77;;;4.50;99.90;;;;;;6229732;23;20190;-85
2021/01/01 05:12:30;;;;;;;16.88;13.75;;;4.50;99.90;;;;;;6230085;23;20172;-85
2021/01/01 05:14:57;;;;;;;19.88;14.80;;;4.50;99.90;;;;;;6230439;23;20167;-84
2021/01/01 05:17:32;;;;;;;18.73;14.60;;;4.50;99.90;;;;;;6230303;23;20202;-85
2021/01/01 05:20:08;;;;;;;24.13;17.42;;;4.50;99.90;;;;;;6230834;23;20195;-85
2021/01/01 05:22:34;;;;;;;17.10;14.40;;;4.50;99.90;;;;;;6230005;23;20193;-85
2021/01/01 05:25:04;;;;;;;18.67;14.18;;;4.60;99.90;;;;;;6230446;23;20487;-85
2021/01/01 05:27:34;;;;;;;18.55;14.52;;;4.60;99.90;;;;;;6229223;23;20202;-85
2021/01/01 05:30:01;;;;;;;20.75;14.15;;;4.60;99.90;;;;;;6229151;23;20517;-85
2021/01/01 05:32:29;;;;;;;17.98;14.35;;;4.60;99.90;;;;;;6227454;23;20648;-85
2021/01/01 05:34:56;;;;;;;16.50;12.63;;;4.60;99.90;;;;;;6228619;23;20179;-85
2021/01/01 05:37:27;;;;;;;17.95;13.20;;;4.60;99.90;;;;;;6228983;23;20221;-85
2021/01/01 05:40:01;;;;;;;16.77;13.95;;;4.60;99.90;;;;;;6228837;23;20187;-85
2021/01/01 05:42:27;;;;;;;21.55;14.45;;;4.70;99.90;;;;;;6231186;23;20191;-85
2021/01/01 05:44:53;;;;;;;18.30;13.88;;;4.70;99.90;;;;;;6235530;23;20180;-84
2021/01/01 05:47:22;;;;;;;18.70;13.68;;;4.70;99.90;;;;;;6239791;23;20202;-84
2021/01/01 05:49:49;;;;;;;16.38;14.52;;;4.70;99.90;;;;;;6242095;23;20178;-84
2021/01/01 05:52:16;;;;;;;16.00;13.20;;;4.50;99.90;;;;;;6242787;23;20179;-83
2021/01/01 05:54:44;;;;;;;17.80;16.00;;;4.40;99.90;;;;;;6243982;23;20187;-83
2021/01/01 05:57:11;;;;;;;17.17;13.57;;;4.40;99.90;;;;;;6244203;23;20205;-83
2021/01/01 05:59:40;;;;;;;20.38;15.57;;;4.30;99.90;;;;;;6244155;23;20190;-83
2021/01/01 06:02:07;;;;;;;19.25;15.57;;;4.20;99.90;;;;;;6244207;23;20164;-84
2021/01/01 06:04:35;;;;;;;21.63;16.73;;;4.10;99.90;;;;;;6244240;23;20198;-83
2021/01/01 06:07:04;;;;;;;19.17;15.93;;;4.00;99.90;;;;;;6244116;23;20192;-84
2021/01/01 06:09:32;;;;;;;21.23;16.10;;;4.00;99.90;;;;;;6244424;23;20153;-83
2021/01/01 06:12:00;;;;;;;20.48;16.73;;;4.00;99.90;;;;;;6243870;23;20175;-83
2021/01/01 06:14:38;;;;;;;24.30;17.60;;;4.10;99.90;;;;;;6244450;23;20159;-83
2021/01/01 06:17:19;;;;;;;19.80;14.50;;;4.10;99.90;;;;;;6244371;23;20182;-83
2021/01/01 06:19:48;;;;;;;21.25;16.20;;;3.90;99.90;;;;;;6244552;23;20170;-84
2021/01/01 06:22:16;;;;;;;27.33;18.17;;;3.80;99.90;;;;;;6244053;23;20161;-84
2021/01/01 06:24:48;;;;;;;17.92;13.00;;;3.90;99.90;;;;;;6244413;23;20266;-83
2021/01/01 06:27:15;;;;;;;15.80;12.52;;;3.70;99.90;;;;;;6244307;23;20193;-83
2021/01/01 06:29:44;;;;;;;11.85;10.63;;;3.50;99.90;;;;;;6244333;23;20193;-83
2021/01/01 06:32:11;;;;;;;13.68;10.35;;;3.40;99.90;;;;;;6244364;23;20153;-83
2021/01/01 06:34:37;;;;;;;15.65;10.88;;;3.30;99.90;;;;;;6244420;23;20166;-83
2021/01/01 06:37:04;;;;;;;12.80;9.57;;;3.20;99.90;;;;;;6244025;23;20190;-83
2021/01/01 06:39:42;;;;;;;16.23;11.20;;;3.10;99.90;;;;;;6244250;23;20163;-83
2021/01/01 06:42:10;;;;;;;12.50;9.43;;;3.20;99.90;;;;;;6244195;23;20147;-83
2021/01/01 06:44:38;;;;;;;12.70;9.45;;;3.20;99.90;;;;;;6244095;23;20197;-83
2021/01/01 06:47:06;;;;;;;11.32;9.40;;;3.30;99.90;;;;;;6243942;23;20186;-83
2021/01/01 06:49:35;;;;;;;11.05;9.32;;;3.40;99.90;;;;;;6243927;23;20167;-83
2021/01/01 06:52:18;;;;;;;13.68;11.20;;;3.30;99.90;;;;;;6243940;23;20157;-84
2021/01/01 06:54:55;;;;;;;11.25;9.15;;;3.30;99.90;;;;;;6243972;23;20165;-83
2021/01/01 06:57:23;;;;;;;15.55;11.65;;;3.40;99.90;;;;;;6243964;23;20192;-83
2021/01/01 06:59:50;;;;;;;9.43;8.45;;;3.30;99.90;;;;;;6243985;23;20177;-83
2021/01/01 07:02:29;;;;;;;11.90;8.40;;;3.40;99.90;;;;;;6243671;23;20166;-83
2021/01/01 07:04:57;;;;;;;13.13;10.40;;;3.50;99.90;;;;;;6244101;23;20361;-83
2021/01/01 07:07:41;;;;;;;12.52;9.02;;;3.50;99.90;;;;;;6243850;23;20194;-83
2021/01/01 07:10:12;;;;;;;7.70;6.90;;;3.50;99.90;;;;;;6243593;23;20225;-83
2021/01/01 07:12:38;;;;;;;8.40;6.80;;;3.50;99.90;;;;;;6244076;23;20155;-83
2021/01/01 07:15:31;;;;;;;10.95;9.23;;;3.50;99.90;;;;;;6243896;23;20188;-83
2021/01/01 07:17:57;;;;;;;10.88;8.35;;;3.50;99.90;;;;;;6243755;23;20185;-83
2021/01/01 07:20:24;;;;;;;8.18;7.38;;;3.60;99.90;;;;;;6243587;23;20162;-83
2021/01/01 07:22:56;;;;;;;9.15;8.10;;;3.50;99.90;;;;;;6243251;23;20192;-83
2021/01/01 07:25:35;;;;;;;10.35;9.10;;;3.40;99.90;;;;;;6243629;23;20206;-83
2021/01/01 07:28:04;;;;;;;10.40;7.72;;;3.30;99.90;;;;;;6243507;23;20209;-82
2021/01/01 07:30:32;;;;;;;12.27;8.27;;;3.20;99.90;;;;;;6243583;23;20166;-84
2021/01/01 07:32:59;;;;;;;10.80;7.93;;;3.30;99.90;;;;;;6243566;23;20185;-83
2021/01/01 07:35:25;;;;;;;9.45;8.30;;;3.30;99.90;;;;;;6243540;23;20168;-83
2021/01/01 07:37:53;;;;;;;10.35;7.30;;;3.30;99.90;;;;;;6243624;23;20188;-84
2021/01/01 07:40:20;;;;;;;9.63;7.22;;;3.30;99.90;;;;;;6243340;23;20165;-83
2021/01/01 07:42:47;;;;;;;12.50;10.13;;;3.20;99.90;;;;;;6243736;23;20189;-82
2021/01/01 07:45:14;;;;;;;10.63;9.57;;;3.10;99.90;;;;;;6243807;23;20224;-83
2021/01/01 07:47:45;;;;;;;11.00;7.97;;;3.10;99.90;;;;;;6243706;23;20182;-83
2021/01/01 07:50:15;;;;;;;11.45;7.97;;;3.20;99.90;;;;;;6243277;23;20181;-83
2021/01/01 07:52:41;;;;;;;9.18;7.97;;;3.20;99.90;;;;;;6242552;23;20166;-83
2021/01/01 07:55:09;;;;;;;11.95;7.53;;;3.20;99.90;;;;;;6243524;23;20163;-83
2021/01/01 07:57:39;;;;;;;12.05;8.23;;;3.10;99.90;;;;;;6243308;23;20200;-83
2021/01/01 08:00:07;;;;;;;9.27;7.35;;;2.90;99.90;;;;;;6243407;23;20170;-84
2021/01/01 08:02:33;;;;;;;9.95;7.85;;;2.90;99.90;;;;;;6243365;23;20185;-83
2021/01/01 08:05:02;;;;;;;10.65;7.43;;;2.90;99.90;;;;;;6243470;23;20158;-84
2021/01/01 08:07:28;;;;;;;11.63;7.97;;;2.90;99.90;;;;;;6243393;23;20186;-82
2021/01/01 08:09:55;;;;;;;9.95;7.43;;;3.10;99.90;;;;;;6243041;23;20192;-82
2021/01/01 08:12:21;;;;;;;10.00;6.80;;;3.10;99.90;;;;;;6243590;23;20163;-83
2021/01/01 08:14:52;;;;;;;6.95;5.38;;;3.10;99.90;;;;;;6243375;23;20173;-83
2021/01/01 08:17:20;;;;;;;10.30;6.50;;;2.90;99.90;;;;;;6243356;23;20216;-82
2021/01/01 08:19:47;;;;;;;8.13;7.32;;;2.80;99.90;;;;;;6243057;23;20204;-83
2021/01/01 08:22:16;;;;;;;5.70;5.15;;;2.90;99.90;;;;;;6243106;23;20207;-82
2021/01/01 08:24:47;;;;;;;8.07;5.85;;;3.00;99.90;;;;;;6243253;23;20226;-82
2021/01/01 08:27:14;;;;;;;7.50;5.90;;;3.10;99.90;;;;;;6243218;23;20206;-83
2021/01/01 08:29:42;;;;;;;8.77;6.03;;;3.00;99.90;;;;;;6242930;23;20207;-82
2021/01/01 08:32:10;;;;;;;8.43;6.25;;;3.10;99.90;;;;;;6242527;23;20159;-83
2021/01/01 08:34:36;;;;;;;6.93;5.65;;;3.10;99.90;;;;;;6235822;23;20178;-83
2021/01/01 08:37:17;;;;;;;7.60;6.05;;;3.20;99.90;;;;;;6235100;23;20205;-84
2021/01/01 08:39:43;;;;;;;6.03;5.43;;;3.20;99.90;;;;;;6236243;23;20168;-83
2021/01/01 08:42:20;;;;;;;5.60;4.80;;;3.30;99.90;;;;;;6235779;23;20189;-85
2021/01/01 08:44:46;;;;;;;6.93;5.50;;;3.30;99.90;;;;;;6236397;23;20186;-83
2021/01/01 08:47:13;;;;;;;5.18;4.03;;;3.30;99.90;;;;;;6236860;23;20207;-83
2021/01/01 08:49:39;;;;;;;6.45;4.85;;;3.20;99.90;;;;;;6234934;23;20664;-82
2021/01/01 08:52:12;;;;;;;7.35;6.65;;;3.40;99.90;;;;;;6236392;23;20188;-83
2021/01/01 08:54:39;;;;;;;5.90;5.20;;;3.50;99.90;;;;;;6236315;23;20197;-83
2021/01/01 08:57:05;;;;;;;5.38;4.80;;;3.60;99.90;;;;;;6236513;23;20208;-83
2021/01/01 08:59:31;;;;;;;5.85;5.07;;;3.80;99.90;;;;;;6237255;23;20184;-83
2021/01/01 09:01:59;;;;;;;8.48;6.20;;;3.90;99.90;;;;;;6238458;23;20182;-83
2021/01/01 09:04:27;;;;;;;6.07;5.47;;;4.00;99.90;;;;;;6238427;23;20213;-82
2021/01/01 09:07:00;;;;;;;7.65;6.32;;;3.90;99.90;;;;;;6240015;23;20224;-83
2021/01/01 09:09:28;;;;;;;6.50;5.18;;;3.90;99.90;;;;;;6239353;23;20167;-82
2021/01/01 09:12:14;;;;;;;6.80;4.40;;;3.80;99.90;;;;;;6239926;23;20198;-83
2021/01/01 09:14:48;;;;;;;4.90;4.53;;;4.00;99.90;;;;;;6240828;23;20175;-82
2021/01/01 09:17:14;;;;;;;4.80;4.20;;;4.00;99.90;;;;;;6243581;23;20202;-83
2021/01/01 09:19:41;;;;;;;5.05;4.47;;;4.10;99.90;;;;;;6241207;23;20175;-83
2021/01/01 09:22:12;;;;;;;4.43;4.13;;;4.10;99.90;;;;;;6242362;23;20155;-81
2021/01/01 09:24:39;;;;;;;5.50;4.30;;;4.20;99.90;;;;;;6239900;23;20210;-81
2021/01/01 09:27:05;;;;;;;4.47;3.80;;;4.30;99.90;;;;;;6239936;23;20201;-81
2021/01/01 09:29:32;;;;;;;4.43;3.60;;;4.30;99.90;;;;;;6234349;23;20182;-81
2021/01/01 09:31:58;;;;;;;2.65;2.38;;;4.00;99.90;;;;;;6234753;23;20195;-81
2021/01/01 09:34:24;;;;;;;4.03;3.65;;;4.00;99.90;;;;;;6242145;23;20463;-82
2021/01/01 09:36:51;;;;;;;3.25;2.95;;;4.00;99.90;;;;;;6240880;23;20203;-82
2021/01/01 09:39:17;;;;;;;3.60;3.20;;;3.90;99.90;;;;;;6240571;23;20193;-81
2021/01/01 09:41:48;;;;;;;3.90;3.60;;;3.90;99.90;;;;;;6240161;23;20183;-82
2021/01/01 09:44:14;;;;;;;4.05;3.20;;;4.00;99.90;;;;;;6238404;23;20185;-81
2021/01/01 09:46:44;;;;;;;3.05;2.75;;;4.20;99.90;;;;;;6240114;23;20202;-82
2021/01/01 09:49:10;;;;;;;3.38;3.08;;;4.10;99.90;;;;;;6237911;23;20213;-82
2021/01/01 09:51:39;;;;;;;4.25;3.20;;;4.10;99.90;;;;;;6236849;23;20233;-83
2021/01/01 09:54:06;;;;;;;6.35;3.95;;;4.20;99.90;;;;;;6237602;23;20179;-83
2021/01/01 09:56:33;;;;;;;4.22;3.70;;;4.30;99.90;;;;;;6236894;23;20210;-85
2021/01/01 09:58:59;;;;;;;4.30;3.38;;;4.50;99.90;;;;;;6236396;23;20185;-82
2021/01/01 10:01:28;;;;;;;3.75;3.38;;;4.50;99.90;;;;;;6236535;23;20180;-82
2021/01/01 10:03:54;;;;;;;3.78;3.47;;;4.60;99.90;;;;;;6238565;23;20202;-82
2021/01/01 10:06:20;;;;;;;3.35;3.15;;;4.70;99.90;;;;;;6239879;23;20230;-83
2021/01/01 10:08:46;;;;;;;2.80;2.60;;;4.90;99.90;;;;;;6237954;23;20190;-83
2021/01/01 10:11:13;;;;;;;2.30;2.10;;;5.00;99.90;;;;;;6241911;23;20214;-82
2021/01/01 10:13:39;;;;;;;4.50;3.30;;;5.10;99.90;;;;;;6243042;23;20167;-83
2021/01/01 10:16:07;;;;;;;2.70;2.50;;;5.20;99.90;;;;;;6242827;23;20227;-83
2021/01/01 10:18:33;;;;;;;3.45;2.45;;;5.30;99.90;;;;;;6241992;23;20188;-83
2021/01/01 10:20:59;;;;;;;2.70;2.50;;;5.30;99.90;;;;;;6241837;23;20167;-82
2021/01/01 10:23:25;;;;;;;3.13;2.83;;;5.30;99.90;;;;;;6243639;23;20196;-82
2021/01/01 10:25:51;;;;;;;2.83;2.63;;;5.40;99.90;;;;;;6242953;23;20168;-83
2021/01/01 10:28:18;;;;;;;3.75;3.55;;;5.50;99.90;;;;;;6242940;23;20197;-82
2021/01/01 10:30:45;;;;;;;3.65;3.35;;;5.60;99.90;;;;;;6242588;23;20165;-83
2021/01/01 10:33:13;;;;;;;4.18;3.28;;;5.60;99.90;;;;;;6242840;23;20165;-86
2021/01/01 10:35:39;;;;;;;3.47;3.13;;;5.60;99.90;;;;;;6241420;23;20193;-83
2021/01/01 10:38:07;;;;;;;3.53;2.65;;;5.60;99.90;;;;;;6243940;23;20186;-83
2021/01/01 10:40:33;;;;;;;3.50;3.20;;;5.60;99.90;;;;;;6241757;23;20181;-84
2021/01/01 10:43:00;;;;;;;2.80;2.60;;;5.60;99.90;;;;;;6242417;23;20201;-83
2021/01/01 10:45:27;;;;;;;3.80;3.50;;;5.60;99.90;;;;;;6244225;23;20159;-84
2021/01/01 10:47:53;;;;;;;3.17;2.80;;;5.50;99.90;;;;;;6244346;23;20212;-84
2021/01/01 10:51:28;;;;;;;3.10;2.80;;;5.40;99.90;;;;;;6244095;23;20211;-86
2021/01/01 10:54:48;;;;;;;3.05;2.75;;;5.20;99.90;;;;;;6237207;23;20185;-85
2021/01/01 12:33:04;;;;;;;;;;;;;;;;;;;;;
2021/01/01 12:35:50;;;;;;;4.40;4.07;;;4.90;99.90;;;;;;6119045;23;20196;-80
2021/01/01 12:38:26;;;;;;;4.65;4.35;;;5.00;99.90;;;;;;6144423;23;20258;-80
2021/01/01 12:40:53;;;;;;;4.05;3.65;;;4.80;99.90;;;;;;6143543;23;20160;-80
2021/01/01 12:43:45;;;;;;;4.10;3.78;;;4.60;99.90;;;;;;6148096;23;20236;-81
2021/01/01 12:46:14;;;;;;;6.03;3.92;;;4.60;99.90;;;;;;6110726;23;20191;-80
2021/01/01 12:48:52;;;;;;;3.95;3.65;;;4.60;99.90;;;;;;6186096;23;20186;-80
2021/01/01 12:51:28;;;;;;;;;;;;;;;;;;;;;
2021/01/01 12:53:55;;;;;;;4.40;4.10;;;5.00;99.90;;;;;;6230967;23;20218;-79
2021/01/01 12:56:21;;;;;;;5.20;4.80;;;5.00;99.90;;;;;;6230508;23;20223;-80
2021/01/01 12:58:47;;;;;;;4.30;3.67;;;5.00;99.90;;;;;;6233151;23;20674;-80
2021/01/01 13:01:14;;;;;;;4.47;3.58;;;4.80;99.90;;;;;;6232392;23;20258;-80
2021/01/01 13:03:42;;;;;;;3.65;3.35;;;4.80;99.90;;;;;;6239155;23;20224;-79
2021/01/01 13:06:11;;;;;;;3.97;3.67;;;4.80;99.90;;;;;;6238067;23;20178;-84
2021/01/01 13:08:38;;;;;;;3.67;3.38;;;4.80;99.90;;;;;;6244901;23;20167;-85
2021/01/01 13:40:43;;;;;;;4.97;4.50;;;5.30;99.90;;;;;;5901814;24;20190;-85
2021/01/01 13:44:05;;;;;;;4.53;4.13;;;5.60;99.90;;;;;;5994253;24;20201;-85
2021/01/01 13:46:41;;;;;;;4.50;4.10;;;5.70;99.90;;;;;;6096707;23;20201;-85
2021/01/01 14:12:54;;;;;;;4.00;3.63;;;5.90;99.90;;;;;;5961566;24;20213;-84
2021/01/01 14:15:44;;;;;;;4.28;3.60;;;5.60;99.90;;;;;;6096401;23;20185;-84
2021/01/01 14:18:17;;;;;;;4.30;3.90;;;5.60;99.90;;;;;;6036650;23;20234;-85
2021/01/01 14:20:47;;;;;;;3.08;2.85;;;5.50;99.90;;;;;;6138166;23;20188;-84
2021/01/01 14:23:22;;;;;;;3.10;2.80;;;5.30;99.90;;;;;;6195721;23;20190;-84
2021/01/01 14:25:55;;;;;;;4.68;4.00;;;5.20;99.90;;;;;;6196936;23;20168;-84
2021/01/01 14:28:41;;;;;;;4.30;4.00;;;5.30;99.90;;;;;;6196389;23;20201;-84
2021/01/01 14:31:29;;;;;;;4.53;4.10;;;5.30;99.90;;;;;;6196347;23;20194;-84
2021/01/01 14:34:12;;;;;;;4.63;4.22;;;5.30;99.90;;;;;;6197623;23;20225;-85
2021/01/01 14:37:01;;;;;;;4.20;3.72;;;5.40;99.90;;;;;;6205137;23;20199;-84
2021/01/01 14:42:47;;;;;;;;;;;;;;;;;;;;;
2021/01/01 14:45:52;;;;;;;5.13;4.65;;;5.40;99.90;;;;;;6226497;23;20223;-84
2021/01/01 14:48:58;;;;;;;3.70;3.40;;;5.40;99.90;;;;;;6157826;23;20251;-84
2021/01/01 14:51:41;;;;;;;5.57;4.07;;;5.40;99.90;;;;;;5962149;24;20562;-85
2021/01/01 14:57:07;;;;;;;5.28;4.13;;;5.30;99.90;;;;;;6048038;23;20216;-85
2021/01/01 15:03:39;;;;;;;4.50;4.13;;;5.20;99.90;;;;;;6044271;23;20188;-85
2021/01/01 15:09:29;;;;;;;8.70;5.75;;;5.10;99.90;;;;;;6043946;23;20182;-85
2021/01/01 15:18:34;;;;;;;5.78;5.15;;;5.00;99.90;;;;;;6221865;23;20208;-84
2021/01/01 15:21:45;;;;;;;6.35;5.45;;;4.90;99.90;;;;;;6146269;22;20211;-84
2021/01/01 15:25:10;;;;;;;;;;;;;;;;;;;;;
2021/01/01 15:28:20;;;;;;;;;;;;;;;;;;;;;
2021/01/01 15:31:26;;;;;;;;;;;;;;;;;;;;;
2021/01/01 15:37:14;;;;;;;6.72;6.05;;;4.60;99.90;;;;;;6042813;23;20220;-85
2021/01/01 15:40:36;;;;;;;6.22;5.82;;;4.50;99.90;;;;;;6223626;23;20186;-85
2021/01/01 15:43:20;;;;;;;8.77;5.88;;;4.40;99.90;;;;;;6076096;23;20754;-85
2021/01/01 15:46:24;;;;;;;6.95;5.90;;;4.30;99.90;;;;;;6214448;23;20178;-85
2021/01/01 15:52:32;;;;;;;6.65;5.28;;;4.10;99.90;;;;;;6224803;22;20242;-85
2021/01/01 15:55:29;;;;;;;6.35;4.82;;;4.00;99.90;;;;;;6132066;23;20184;-85
2021/01/01 19:45:43;;;;;;;24.08;20.75;;;2.00;99.90;;;;;;5866634;23;20197;-78
2021/01/01 19:48:49;;;;;;;29.08;20.00;;;2.00;99.90;;;;;;6209481;23;20183;-83
2021/01/01 19:52:11;;;;;;;;;;;;;;;;;;;;;
2021/01/01 20:04:59;;;;;;;28.63;22.33;;;1.90;99.90;;;;;;6060985;23;20202;-82
2021/01/01 20:08:13;;;;;;;;;;;;;;;;;;;;;
2021/01/01 20:11:09;;;;;;;;;;;;;;;;;;;;;